createdAt,value
2019-04-16T00:03:54.176Z,52.60
2019-04-16T00:08:01.483Z,52.30
2019-04-16T00:12:12.474Z,51.90
2019-04-16T00:16:15.522Z,52.10
2019-04-16T00:20:18.743Z,52.00
2019-04-16T00:24:29.836Z,51.60
2019-04-16T00:28:32.836Z,51.50
2019-04-16T00:32:38.003Z,51.50
2019-04-16T00:36:40.920Z,51.70
2019-04-16T00:40:43.947Z,51.40
2019-04-16T00:44:47.084Z,51.30
2019-04-16T00:48:50.082Z,51.20
2019-04-16T00:52:53.247Z,52.20
2019-04-16T00:56:57.578Z,53.80
2019-04-16T01:01:00.583Z,54.50
2019-04-16T01:05:04.773Z,55.10
2019-04-16T01:09:07.945Z,55.50
2019-04-16T01:13:10.951Z,55.80
2019-04-16T01:17:13.947Z,55.40
2019-04-16T01:21:17.168Z,55.90
2019-04-16T01:25:23.185Z,57.10
2019-04-16T01:29:25.166Z,57.20
2019-04-16T01:33:30.079Z,57.40
2019-04-16T01:37:37.650Z,57.40
2019-04-16T01:41:40.707Z,58.10
2019-04-16T01:45:43.752Z,58.30
2019-04-16T01:49:46.835Z,58.00
2019-04-16T01:53:52.340Z,57.80
2019-04-16T01:57:59.685Z,57.80
2019-04-16T02:02:01.979Z,57.40
2019-04-16T02:06:05.024Z,57.90
2019-04-16T02:10:08.527Z,58.00
2019-04-16T02:14:11.544Z,58.20
2019-04-16T02:18:14.669Z,59.20
2019-04-16T02:22:17.695Z,58.80
2019-04-16T02:26:23.397Z,59.20
2019-04-16T02:30:25.668Z,58.80
2019-04-16T02:34:28.875Z,59.20
2019-04-16T02:38:32.017Z,59.20
2019-04-16T02:42:35.004Z,58.80
2019-04-16T02:46:38.266Z,58.90
2019-04-16T02:50:43.266Z,58.20
2019-04-16T02:54:48.273Z,57.90
2019-04-16T02:58:58.867Z,57.80
2019-04-16T03:03:06.547Z,57.70
2019-04-16T03:07:09.643Z,57.70
2019-04-16T03:11:16.242Z,57.00
2019-04-16T03:15:19.600Z,56.70
2019-04-16T03:19:30.381Z,56.70
2019-04-16T03:23:36.512Z,56.80
2019-04-16T03:27:38.521Z,57.30
2019-04-16T03:31:41.626Z,57.30
2019-04-16T03:35:44.633Z,57.30
2019-04-16T03:39:47.632Z,57.40
2019-04-16T03:43:50.639Z,57.10
2019-04-16T03:47:53.664Z,57.60
2019-04-16T03:51:56.670Z,57.10
2019-04-16T03:55:59.716Z,57.00
2019-04-16T04:00:05.339Z,57.20
2019-04-16T04:04:08.391Z,56.50
2019-04-16T04:08:16.131Z,56.20
2019-04-16T04:12:16.420Z,55.70
2019-04-16T04:16:19.606Z,56.00
2019-04-16T04:20:22.890Z,57.60
2019-04-16T04:24:28.550Z,58.20
2019-04-16T04:28:30.887Z,58.60
2019-04-16T04:32:35.412Z,57.50
2019-04-16T04:36:39.026Z,58.20
2019-04-16T04:40:44.751Z,56.30
2019-04-16T04:44:47.320Z,56.80
2019-04-16T04:48:55.014Z,57.00
2019-04-16T04:52:55.460Z,56.80
2019-04-16T04:56:59.315Z,57.40
2019-04-16T05:01:04.488Z,57.80
2019-04-16T05:05:15.524Z,58.90
2019-04-16T05:09:18.620Z,59.60
2019-04-16T05:13:24.920Z,60.00
2019-04-16T05:17:28.600Z,59.00
2019-04-16T05:21:31.745Z,58.40
2019-04-16T05:25:35.067Z,57.30
2019-04-16T05:29:38.255Z,57.70
2019-04-16T05:33:41.397Z,57.20
2019-04-16T05:37:44.472Z,56.50
2019-04-16T05:41:47.534Z,56.90
2019-04-16T05:45:50.914Z,56.50
2019-04-16T05:49:54.477Z,53.60
2019-04-16T05:54:00.767Z,52.60
2019-04-16T05:58:03.798Z,53.40
2019-04-16T06:02:09.717Z,54.20
2019-04-16T06:06:12.716Z,52.00
2019-04-16T06:10:18.073Z,51.30
2019-04-16T06:14:31.691Z,50.70
2019-04-16T06:18:54.552Z,51.10
2019-04-16T06:23:16.310Z,51.50
2019-04-16T06:27:30.244Z,51.40
2019-04-16T06:31:47.104Z,50.10
2019-04-16T06:35:52.114Z,49.70
2019-04-16T06:40:00.639Z,50.20
2019-04-16T06:44:04.294Z,50.00
2019-04-16T06:48:12.808Z,49.60
2019-04-16T06:52:22.444Z,48.70
2019-04-16T06:56:30.195Z,48.00
2019-04-16T07:00:47.485Z,47.40
2019-04-16T07:04:52.952Z,48.00
2019-04-16T07:09:00.628Z,46.60
2019-04-16T07:13:03.636Z,45.00
2019-04-16T07:17:06.654Z,42.90
2019-04-16T07:21:09.658Z,43.20
2019-04-16T07:25:12.733Z,40.40
2019-04-16T07:29:17.751Z,40.70
2019-04-16T07:33:25.480Z,40.90
2019-04-16T07:37:46.792Z,40.50
2019-04-16T07:42:11.744Z,38.00
2019-04-16T07:46:32.317Z,36.70
2019-04-16T07:50:55.123Z,38.00
2019-04-16T07:55:09.523Z,37.30
2019-04-16T07:59:12.564Z,35.40
2019-04-16T08:03:15.552Z,35.20
2019-04-16T08:07:20.471Z,31.30
2019-04-16T08:11:24.368Z,31.40
2019-04-16T08:15:27.641Z,29.60
2019-04-16T08:19:37.029Z,30.80
2019-04-16T08:23:43.610Z,29.10
2019-04-16T08:27:47.273Z,29.80
2019-04-16T08:31:51.637Z,32.40
2019-04-16T08:35:54.973Z,31.90
2019-04-16T08:39:58.089Z,30.00
2019-04-16T08:44:03.550Z,29.60
2019-04-16T08:48:09.015Z,28.40
2019-04-16T08:52:11.411Z,27.60
2019-04-16T08:56:14.505Z,28.70
2019-04-16T09:00:17.775Z,28.80
2019-04-16T09:04:20.798Z,29.50
2019-04-16T09:08:29.605Z,30.50
2019-04-16T09:12:32.785Z,29.40
2019-04-16T09:16:54.724Z,27.30
2019-04-16T09:20:57.920Z,26.50
2019-04-16T09:25:18.012Z,28.40
2019-04-16T09:29:23.968Z,28.40
2019-04-16T09:33:34.859Z,26.80
2019-04-16T09:37:56.545Z,26.70
2019-04-16T09:41:59.737Z,25.70
2019-04-16T09:46:10.327Z,26.10
2019-04-16T09:50:11.164Z,25.80
2019-04-16T09:54:14.245Z,28.30
2019-04-16T09:58:21.729Z,24.90
2019-04-16T10:02:26.261Z,27.10
2019-04-16T10:06:29.275Z,26.90
2019-04-16T10:10:33.756Z,25.20
2019-04-16T10:14:36.788Z,26.60
2019-04-16T10:18:39.841Z,28.30
2019-04-16T10:22:42.884Z,29.40
2019-04-16T10:26:47.992Z,30.40
2019-04-16T10:30:50.995Z,29.00
2019-04-16T10:34:54.135Z,27.80
2019-04-16T10:39:02.203Z,27.90
2019-04-16T10:43:07.142Z,27.70
2019-04-16T10:47:12.565Z,29.30
2019-04-16T10:51:17.933Z,27.80
2019-04-16T10:55:22.857Z,28.10
2019-04-16T10:59:40.190Z,28.80
2019-04-16T11:03:47.623Z,31.80
2019-04-16T11:07:52.382Z,28.90
2019-04-16T11:11:56.473Z,30.50
2019-04-16T11:16:01.393Z,32.00
2019-04-16T11:20:06.180Z,30.80
2019-04-16T11:24:09.592Z,31.70
2019-04-16T11:28:14.336Z,33.40
2019-04-16T11:32:19.520Z,29.60
2019-04-16T11:36:22.530Z,29.10
2019-04-16T11:40:25.573Z,29.60
2019-04-16T11:44:28.645Z,28.30
2019-04-16T11:48:36.647Z,28.50
2019-04-16T11:52:39.824Z,28.90
2019-04-16T11:56:43.628Z,30.50
2019-04-16T12:00:51.319Z,27.50
2019-04-16T12:04:59.537Z,28.60
2019-04-16T12:09:25.967Z,28.40
2019-04-16T12:13:34.567Z,30.80
2019-04-16T12:17:48.739Z,28.10
2019-04-16T12:21:53.655Z,29.00
2019-04-16T12:26:10.565Z,28.50
2019-04-16T12:30:34.657Z,27.60
2019-04-16T12:34:51.194Z,27.70
2019-04-16T12:39:18.368Z,29.30
2019-04-16T12:43:32.370Z,28.70
2019-04-16T12:47:48.952Z,30.50
2019-04-16T12:51:53.938Z,30.50
2019-04-16T12:56:08.877Z,30.50
2019-04-16T13:00:31.779Z,29.30
2019-04-16T13:04:45.688Z,28.80
2019-04-16T13:09:09.058Z,28.80
2019-04-16T13:13:30.884Z,26.90
2019-04-16T13:17:42.140Z,28.70
2019-04-16T13:21:47.172Z,29.00
2019-04-16T13:25:54.713Z,29.50
2019-04-16T13:30:01.284Z,28.30
2019-04-16T13:34:02.875Z,28.80
2019-04-16T13:38:09.223Z,28.20
2019-04-16T13:42:10.819Z,28.40
2019-04-16T13:46:13.816Z,29.50
2019-04-16T13:50:21.589Z,27.90
2019-04-16T13:54:35.554Z,27.40
2019-04-16T13:58:59.018Z,26.90
2019-04-16T14:03:07.305Z,27.40
2019-04-16T14:07:10.371Z,27.80
2019-04-16T14:11:16.416Z,27.00
2019-04-16T14:15:31.180Z,27.80
2019-04-16T14:19:25.320Z,28.80
2019-04-16T14:23:28.464Z,27.50
2019-04-16T14:27:31.617Z,26.90
2019-04-16T14:31:34.648Z,29.60
2019-04-16T14:35:40.188Z,27.80
2019-04-16T14:39:44.568Z,28.60
2019-04-16T14:43:55.297Z,29.20
2019-04-16T14:47:58.518Z,29.70
2019-04-16T14:52:02.010Z,30.80
2019-04-16T14:56:08.240Z,30.60
2019-04-16T15:00:22.184Z,29.70
2019-04-16T15:04:36.273Z,30.00
2019-04-16T15:08:53.545Z,31.00
2019-04-16T15:13:00.971Z,29.20
2019-04-16T15:17:05.878Z,30.70
2019-04-16T15:21:29.994Z,31.60
2019-04-16T15:25:51.327Z,29.70
2019-04-16T15:30:12.660Z,30.50
2019-04-16T15:34:17.601Z,31.70
2019-04-16T15:38:29.548Z,29.80
2019-04-16T15:42:34.991Z,30.00
2019-04-16T15:46:41.263Z,30.90
2019-04-16T15:50:49.664Z,29.90
2019-04-16T15:55:03.121Z,31.40
2019-04-16T15:59:20.212Z,32.00
2019-04-16T16:03:36.980Z,33.20
2019-04-16T16:07:41.912Z,35.20
2019-04-16T16:12:02.962Z,36.10
2019-04-16T16:16:09.881Z,34.90
2019-04-16T16:20:11.531Z,34.70
2019-04-16T16:24:15.698Z,33.60
2019-04-16T16:28:18.763Z,33.90
2019-04-16T16:32:21.964Z,34.80
2019-04-16T16:36:25.061Z,34.80
2019-04-16T16:40:28.244Z,35.80
2019-04-16T16:44:31.313Z,36.40
2019-04-16T16:48:34.641Z,36.90
2019-04-16T16:52:40.232Z,36.80
2019-04-16T16:56:45.274Z,37.40
2019-04-16T17:00:59.161Z,37.70
2019-04-16T17:05:02.977Z,38.30
2019-04-16T17:09:08.364Z,38.60
2019-04-16T17:13:14.172Z,38.50
2019-04-16T17:17:16.833Z,38.30
2019-04-16T17:21:20.029Z,39.50
2019-04-16T17:25:35.662Z,39.60
2019-04-16T17:29:28.592Z,40.50
2019-04-16T17:33:31.602Z,40.50
2019-04-16T17:37:34.691Z,40.30
2019-04-16T17:41:42.629Z,40.80
2019-04-16T17:45:47.603Z,41.20
2019-04-16T17:50:02.426Z,41.40
2019-04-16T17:54:14.080Z,41.40
2019-04-16T17:58:19.015Z,41.60
2019-04-16T18:02:40.069Z,42.00
2019-04-16T18:06:45.064Z,42.10
2019-04-16T18:10:50.037Z,42.50
2019-04-16T18:15:09.197Z,43.00
2019-04-16T18:19:13.603Z,43.30
2019-04-16T18:23:21.352Z,48.60
2019-04-16T18:27:29.242Z,43.80
2019-04-16T18:31:36.393Z,43.70
2019-04-16T18:35:41.377Z,44.60
2019-04-16T18:39:47.396Z,43.80
2019-04-16T18:43:58.429Z,44.00
2019-04-16T18:48:13.847Z,46.20
2019-04-16T18:52:14.412Z,47.90
2019-04-16T18:56:17.519Z,49.50
2019-04-16T19:00:25.315Z,50.10
2019-04-16T19:04:30.160Z,50.60
2019-04-16T19:08:41.698Z,51.30
2019-04-16T19:12:38.253Z,52.00
2019-04-16T19:16:41.265Z,52.30
2019-04-16T19:20:44.302Z,53.00
2019-04-16T19:24:47.386Z,53.30
2019-04-16T19:28:50.719Z,54.10
2019-04-16T19:32:53.789Z,54.90
2019-04-16T19:36:59.528Z,55.40
2019-04-16T19:41:01.860Z,55.80
2019-04-16T19:45:04.971Z,57.20
2019-04-16T19:49:07.969Z,57.60
2019-04-16T19:53:13.959Z,57.50
2019-04-16T19:57:16.382Z,57.50
2019-04-16T20:01:19.567Z,57.20
2019-04-16T20:05:22.576Z,56.80
2019-04-16T20:09:25.617Z,56.60
2019-04-16T20:13:29.723Z,56.40
2019-04-16T20:17:32.934Z,56.80
2019-04-16T20:21:37.929Z,57.10
2019-04-16T20:25:40.940Z,57.10
2019-04-16T20:29:44.930Z,56.80
2019-04-16T20:33:48.046Z,57.00
2019-04-16T20:37:54.339Z,57.20
2019-04-16T20:41:59.786Z,57.80
2019-04-16T20:46:03.656Z,58.00
2019-04-16T20:50:06.956Z,58.00
2019-04-16T20:54:13.730Z,58.70
2019-04-16T20:58:15.063Z,59.90
2019-04-16T21:02:18.418Z,60.70
2019-04-16T21:06:21.517Z,61.30
2019-04-16T21:10:24.792Z,62.00
2019-04-16T21:14:27.788Z,62.20
2019-04-16T21:18:30.788Z,62.30
2019-04-16T21:22:33.796Z,62.40
2019-04-16T21:26:36.812Z,62.30
2019-04-16T21:30:43.499Z,63.10
2019-04-16T21:34:48.985Z,63.70
2019-04-16T21:39:06.256Z,64.20
2019-04-16T21:43:09.272Z,64.40
2019-04-16T21:47:12.272Z,64.70
2019-04-16T21:51:19.046Z,64.70
2019-04-16T21:55:20.335Z,64.60
2019-04-16T21:59:23.417Z,64.60
2019-04-16T22:03:28.441Z,64.60
2019-04-16T22:07:31.551Z,64.60
2019-04-16T22:11:34.557Z,64.50
2019-04-16T22:15:37.605Z,64.30
2019-04-16T22:19:53.311Z,64.90
2019-04-16T22:23:50.147Z,64.70
2019-04-16T22:27:50.640Z,65.10
2019-04-16T22:31:57.003Z,65.60
2019-04-16T22:35:59.631Z,65.80
2019-04-16T22:40:11.540Z,66.20
2019-04-16T22:44:28.548Z,66.10
2019-04-16T22:48:31.636Z,66.80
2019-04-16T22:52:34.714Z,67.40
2019-04-16T22:56:39.679Z,67.60
2019-04-16T23:00:45.143Z,67.80
2019-04-16T23:04:48.334Z,68.00
2019-04-16T23:08:51.409Z,68.10
2019-04-16T23:12:59.513Z,67.80
2019-04-16T23:17:00.303Z,67.60
2019-04-16T23:21:09.148Z,67.50
2019-04-16T23:25:08.464Z,68.00
2019-04-16T23:29:12.182Z,67.90
2019-04-16T23:33:16.770Z,67.80
2019-04-16T23:37:23.034Z,68.10
2019-04-16T23:41:24.683Z,68.20
2019-04-16T23:45:31.425Z,68.80
2019-04-16T23:49:38.903Z,68.30
2019-04-16T23:53:43.836Z,69.00
2019-04-16T23:58:03.656Z,69.20
